• Join FlightAware (Why Join?)
  • Login
  • US Flag 
12:50AM EDT


 

Airport Tracker/Info


-or-


 

Live Flight TrackerFlight Track Log ✈ EGF4383 ✈ 24-Apr-2013 ✈ KCHO - KORD

Flight Track Log - Related Links

Times and Time Zones

All times are in EDT time to prevent confusion due to time zone crossing. See the EGF4383 flight status page for this flight to view local times or setup timezone preferences in your user account.

Time Position Orientation Groundspeed Altitude Reporting Facility
EDT Latitude Longitude Course Direction KTS MPH feet Rate Location/Type
05:00PM 38.1167 -78.4667 298° West 141 162 1,400  Level Potomac TRACON
05:01PM 38.0942 -78.5019 231° Southwest 190 219 2,900 2,220 Climbing Washington Center
05:02PM 38.1197 -78.5611 299° West 215 247 5,300 2,340 Climbing Washington Center
05:03PM 38.2365 -78.7429 293° West  Level FlightAware Approximate
05:03PM 38.1475 -78.6228 300° West 243 280 7,600  Level Washington Center
05:04PM 38.2745 -78.8404 299° West  Level FlightAware Approximate
05:04PM 38.1789 -78.7008 297° West 248 285 9,400  Level Washington Center
05:05PM 38.3152 -78.9363 298° West  Level FlightAware Approximate
05:05PM 38.2139 -78.7919 296° West 253 291 11,600  Level Washington Center
05:06PM 38.3554 -79.0327 298° West  Level FlightAware Approximate
05:06PM 38.2531 -78.8889 297° West 275 316 12,800  Level Washington Center
05:07PM 38.2900 -78.9831 297° West 291 335 14,500 1,680 Climbing Washington Center
05:08PM 38.3272 -79.0722 298° West 309 356 16,200 1,620 Climbing Washington Center
05:09PM 38.3681 -79.1722 298° West 315 362 17,800 2,040 Climbing Washington Center
05:10PM 38.4089 -79.2694 298° West 315 362 20,300 2,280 Climbing Washington Center
05:11PM 38.4494 -79.3750 296° West 310 357 22,400 1,800 Climbing Washington Center
05:12PM 38.4881 -79.4697 298° West 310 357 23,900 780 Climbing Washington Center
05:13PM 38.5283 -79.5753 296° West 310 357 24,000 300 Climbing Washington Center
05:14PM 38.5725 -79.6892 296° West 337 388 24,500 900 Climbing Washington Center
05:15PM 38.6147 -79.7925 298° West 356 410 25,900 1,380 Climbing Washington Center
05:16PM 38.6589 -79.9014 297° West 356 410 27,300 1,320 Climbing Washington Center
05:17PM 38.7008 -80.0103 296° West 350 403 28,600 1,260 Climbing Washington Center
05:19PM 38.7797 -80.2086 297° West 333 383 31,100 1,200 Climbing Indianapolis Center
05:20PM 38.8211 -80.3169 296° West 340 391 32,200 960 Climbing Indianapolis Center
05:21PM 38.8642 -80.4272 297° West 346 398 33,200 840 Climbing Indianapolis Center
05:22PM 38.9078 -80.5394 297° West 353 406 34,000 540 Climbing Indianapolis Center
05:23PM 38.9633 -80.6817 297° West 373 429 34,400 660 Climbing Indianapolis Center
05:24PM 39.0097 -80.8003 297° West 375 432 35,400 720 Climbing Indianapolis Center
05:25PM 39.0569 -80.9158 298° West 369 425 36,000 240 Climbing Indianapolis Center
05:26PM 39.1053 -81.0303 299° West 367 422 36,000  Level Indianapolis Center
05:27PM 39.1508 -81.1417 298° West 358 412 36,000  Level Indianapolis Center
05:28PM 39.2053 -81.2736 298° West 352 405 36,000  Level Indianapolis Center
05:29PM 39.2519 -81.3883 298° West 359 413 36,000  Level Indianapolis Center
05:30PM 39.2994 -81.5058 298° West 367 422 36,000  Level Indianapolis Center
05:32PM 39.3475 -81.6233 298° West 370 426 36,000  Level Indianapolis Center
05:33PM 39.3961 -81.7428 298° West 375 432 36,000  Level Indianapolis Center
05:34PM 39.4439 -81.8639 297° West 378 435 36,000  Level Indianapolis Center
05:35PM 39.5025 -82.0064 298° West 376 433 36,000  Level Indianapolis Center
05:36PM 39.5481 -82.1236 297° West 368 423 36,000  Level Indianapolis Center
05:37PM 39.5908 -82.2303 298° West 364 419 36,000  Level Indianapolis Center
05:38PM 39.6436 -82.3644 297° West 356 410 36,000  Level Indianapolis Center
05:39PM 39.6892 -82.4783 297° West 352 405 36,000  Level Indianapolis Center
05:40PM 39.7336 -82.5931 297° West 353 406 36,000  Level Indianapolis Center
05:41PM 39.7772 -82.7056 297° West 348 400 36,000  Level Indianapolis Center
05:42PM 39.8214 -82.8186 297° West 348 400 36,000  Level Indianapolis Center
05:43PM 39.8644 -82.9294 297° West 343 395 36,000  Level Indianapolis Center
05:44PM 39.9128 -83.0386 300° West 346 398 36,000  Level Indianapolis Center
05:46PM 40.0325 -83.2692 304° West 356 410 36,000  Level Indianapolis Center
05:47PM 40.0864 -83.3764 303° West 355 409 36,000  Level Indianapolis Center
05:48PM 40.1419 -83.4844 304° West 358 412 36,000  Level Indianapolis Center
05:49PM 40.1958 -83.5928 303° West 357 411 36,000  Level Indianapolis Center
05:50PM 40.2517 -83.7017 304° West 359 413 36,000  Level Indianapolis Center
05:51PM 40.3164 -83.8300 304° West 359 413 36,000  Level Indianapolis Center
05:52PM 40.3717 -83.9417 303° West 362 417 36,000  Level Indianapolis Center
05:53PM 40.4261 -84.0508 303° West 355 409 36,000 -180 Level Indianapolis Center
05:54PM 40.4808 -84.1614 303° West 359 413 35,700 -480 Descending Indianapolis Center
05:55PM 40.5375 -84.2772 303° West 369 425 35,100 -660 Descending Indianapolis Center
05:56PM 40.5936 -84.3919 303° West 373 429 34,400 -540 Descending Indianapolis Center
05:57PM 40.6511 -84.5075 303° West 374 430 34,000 -360 Descending Indianapolis Center
05:58PM 40.6669 -84.5397 303° West 376 433 34,000  Level Chicago Center
05:59PM 40.7156 -84.6553 299° West 367 422 34,000  Level Chicago Center
06:00PM 40.7728 -84.7914 299° West 357 411 34,000 -180 Level Chicago Center
06:01PM 40.8247 -84.9119 300° West 370 426 33,700 -600 Descending Chicago Center
06:02PM 40.8750 -85.0339 299° West 377 434 32,800 -960 Descending Chicago Center
06:03PM 40.9264 -85.1594 298° West 383 441 31,800 -1,020 Descending Chicago Center
06:04PM 40.9769 -85.2828 299° West 383 441 30,800 -1,140 Descending Chicago Center
06:05PM 41.0261 -85.4006 299° West 371 427 29,500 -1,380 Descending Chicago Center
06:06PM 41.0778 -85.5256 299° West 382 440 28,000 -1,560 Descending Chicago Center
06:07PM 41.1383 -85.6764 298° West 385 443 26,300 -1,380 Descending Chicago Center
06:08PM 41.1908 -85.8031 299° West 388 447 25,200 -660 Descending Chicago Center
06:09PM 41.2492 -85.9250 302° West 389 448 25,000 -540 Descending Chicago Center
06:10PM 41.3072 -86.0467 302° West 389 448 24,100 -960 Descending Chicago Center
06:11PM 41.3644 -86.1658 303° West 385 443 23,100 -1,320 Descending Chicago Center
06:12PM 41.4217 -86.2875 302° West 384 442 21,400 -2,280 Descending Chicago Center
06:13PM 41.4875 -86.4292 302° West 375 432 18,400 -2,580 Descending Chicago Center
06:14PM 41.5397 -86.5403 302° West 359 413 16,100 -2,280 Descending Chicago Center
06:15PM 41.5914 -86.6486 303° West 351 404 13,800 -1,980 Descending Chicago Center
06:16PM 41.6353 -86.7467 301° West 334 384 12,100 -900 Descending Chicago Center
06:17PM 41.7303 -86.8069 335° Northwest 336 387 12,000 -60 Descending Chicago Center
06:18PM 41.8242 -86.8319 349° North 350 403 12,000  Level Chicago Center
06:19PM 41.8650 -86.9386 297° West 332 382 12,000 -240 Level Chicago Center
06:20PM 41.8917 -87.0589 287° West 337 388 11,500 -780 Descending Chicago Center
06:21PM 41.9172 -87.1764 286° West 332 382 10,400 -780 Descending Chicago Center
06:22PM 41.9486 -87.3139 287° West 325 374 10,000 -360 Descending Chicago Center
06:23PM 41.9700 -87.4167 286° West 295 339 9,700 -540 Descending Chicago Center
06:24PM 41.9667 -87.4333 255° West 249 287 9,300 -2,040 Descending Chicago TRACON
06:25PM 41.9833 -87.5333 283° West 246 283 7,100 -2,100 Descending Chicago TRACON
06:26PM 41.9833 -87.6333 270° West 243 280 5,200 -1,800 Descending Chicago TRACON
06:27PM 41.9833 -87.7167 270° West 235 270 3,600 -1,620 Descending Chicago TRACON